If you wish to contribute or participate in the discussions about articles you are invited to join SKYbrary as a registered user

 Actions

Toulon-Hyères Airport

From SKYbrary Wiki

LFTH /
Revision as of 20:15, 16 February 2015 by Timo.Kouwenhoven (talk | contribs) (LF Airports CSV import)
(diff) ← Older revision | Latest revision (diff) | Newer revision → (diff)
Airport
ICAO: LFTH – IATA: TLN
Summary
Name Toulon-Hyères Airport
Region Europe
Territory France FR.gif
Location , Provence-Alpes-Cote d'Azur
Serving Hyeres
Elevation 2.134 m
7 ft
7 ft2.134 m
Type medium airport
Coordinates 43° 5' 50.28" N, 6° 8' 45.71" E
Runways
Designator Length Width Surface ROPS
5/23 2120 m6,955.381 ft
45 m147.638 ft
ASP yes/yes
14/32 1900 m6,233.596 ft
50 m164.042 ft
ASP no/no


METAR
Observation LFTH 190900Z AUTO 11008KT 060V150 9999 FEW017 25/20 Q1016 NOSIG
Station Hyeres
Date/Time 19 September 2019 09:00:00
Wind direction 110°
Wind speed 08 kts
Lowest cloud amount few clouds
Temperature 25°C
Dew point 20°C
Humidity 73%
QNH 1016 hPa
Weather condition n/a